Starke, Florida
Current Conditions -  °F | °C
As of 2:35 AM on Sunday 23 Nov 2014 (Local Time) from K42J Reporting Station
Overcast Overcast  
Wind Chill: 68°   Ceiling: 3200
Heat Index: 68°   Visibility: 3mi
Dew Point: 66°   Wind: 8mph
Humidity: 94%   Direction: 110°ESE
Pressure: 30.05"   Gusts: NA
Location:  29.95°N, 82.11°W
Report Text: K42J 230735Z AUTO 11007KT 3SM SCT001 OVC032 20/19 A3005 RMK AO1 TSNO
Loading
Personal Weather Stations






























Interactive Weather Map New forecast layout! Learn more

10-Day Weather Forecast

Advertisements
Track Severe Weather on mobile